createdAt,value
2023-04-05T03:48:29.407Z,98.10
2023-04-05T03:50:56.253Z,98.30
2023-04-05T03:53:23.402Z,98.40
2023-04-05T03:55:50.390Z,98.40
2023-04-05T03:58:17.647Z,98.20
2023-04-05T04:00:44.392Z,98.40
2023-04-05T04:03:11.334Z,98.20
2023-04-05T04:05:39.360Z,98.30
2023-04-05T04:08:06.443Z,98.80
2023-04-05T04:10:34.481Z,98.50
2023-04-05T04:13:01.130Z,98.80
2023-04-05T04:15:27.979Z,98.90
2023-04-05T04:17:54.699Z,98.70
2023-04-05T04:20:21.377Z,98.50
2023-04-05T04:22:48.934Z,98.40
2023-04-05T04:25:18.605Z,98.40
2023-04-05T04:27:46.637Z,98.60
2023-04-05T04:30:14.834Z,98.60
2023-04-05T04:32:52.740Z,98.40
2023-04-05T04:35:24.609Z,98.20
2023-04-05T04:37:54.723Z,98.30
2023-04-05T04:40:22.805Z,98.10
2023-04-05T04:42:49.568Z,98.50
2023-04-05T04:45:17.699Z,98.60
2023-04-05T04:47:49.123Z,98.70
2023-04-05T04:50:16.583Z,98.70
2023-04-05T04:52:43.261Z,98.70
2023-04-05T04:55:10.354Z,98.40
2023-04-05T04:57:37.015Z,99.00
2023-04-05T05:00:11.936Z,98.90
2023-04-05T05:02:38.640Z,98.80
2023-04-05T05:05:07.031Z,99.00
2023-04-05T05:07:34.218Z,98.90
2023-04-05T05:10:01.607Z,98.90
2023-04-05T05:12:28.276Z,99.40
2023-04-05T05:14:54.895Z,99.00
2023-04-05T05:17:21.698Z,98.80
2023-04-05T05:19:48.392Z,98.50
2023-04-05T05:22:15.411Z,98.70
2023-04-05T05:24:42.540Z,98.80
2023-04-05T05:27:09.161Z,99.00
2023-04-05T05:29:35.777Z,99.60
2023-04-05T05:32:02.446Z,99.90
2023-04-05T05:34:29.076Z,99.60
2023-04-05T05:36:55.868Z,99.40
2023-04-05T05:39:23.562Z,99.60
2023-04-05T05:41:50.233Z,99.60
2023-04-05T05:44:16.908Z,99.20
2023-04-05T05:46:43.621Z,99.30
2023-04-05T05:49:10.327Z,99.10
2023-04-05T05:51:36.979Z,99.00
2023-04-05T05:54:04.066Z,98.70
2023-04-05T05:56:31.179Z,98.90
2023-04-05T05:58:59.461Z,98.70
2023-04-05T06:01:27.960Z,98.90
2023-04-05T06:03:56.999Z,98.60
2023-04-05T06:06:23.763Z,98.70
2023-04-05T06:08:51.261Z,98.40
2023-04-05T06:11:19.448Z,97.50
2023-04-05T06:13:46.220Z,97.40
2023-04-05T06:16:13.023Z,97.30
2023-04-05T06:18:39.735Z,96.90
2023-04-05T06:21:06.563Z,96.40
2023-04-05T06:23:33.794Z,95.60
2023-04-05T06:26:00.774Z,94.70
2023-04-05T06:28:27.694Z,94.60
2023-04-05T06:30:55.940Z,94.30
2023-04-05T06:33:22.589Z,94.00
2023-04-05T06:35:49.221Z,94.00
2023-04-05T06:38:16.099Z,94.00
2023-04-05T06:40:42.842Z,93.50
2023-04-05T06:43:10.913Z,93.50
2023-04-05T06:45:37.678Z,93.20
2023-04-05T06:48:04.662Z,93.10
2023-04-05T06:50:31.604Z,92.70
2023-04-05T06:52:58.220Z,92.40
2023-04-05T06:55:24.827Z,92.50
2023-04-05T06:57:51.575Z,92.10
2023-04-05T07:00:18.607Z,91.90
2023-04-05T07:02:45.340Z,91.20
2023-04-05T07:05:12.664Z,91.30
2023-04-05T07:07:41.329Z,91.10
2023-04-05T07:10:08.658Z,90.80
2023-04-05T07:12:35.448Z,90.40
2023-04-05T07:15:02.371Z,90.70
2023-04-05T07:17:29.142Z,90.50
2023-04-05T07:19:56.218Z,90.00
2023-04-05T07:22:22.809Z,89.90
2023-04-05T07:24:49.441Z,89.20
2023-04-05T07:27:16.277Z,88.80
2023-04-05T07:29:43.951Z,87.70
2023-04-05T07:32:11.658Z,86.10
2023-04-05T07:34:38.412Z,86.70
2023-04-05T07:37:06.271Z,87.10
2023-04-05T07:39:33.734Z,87.00
2023-04-05T07:42:00.469Z,86.90
2023-04-05T07:44:27.064Z,85.20
2023-04-05T07:46:53.758Z,83.90
2023-04-05T07:49:25.388Z,84.40
2023-04-05T07:51:55.705Z,82.90
2023-04-05T07:54:22.585Z,82.60
2023-04-05T07:56:50.026Z,81.70
2023-04-05T07:59:16.898Z,80.60
2023-04-05T08:01:43.608Z,80.10
2023-04-05T08:04:10.383Z,78.50
2023-04-05T08:06:37.154Z,78.00
2023-04-05T08:09:05.741Z,78.40
2023-04-05T08:11:33.118Z,76.20
2023-04-05T08:14:00.118Z,75.50
2023-04-05T08:16:27.170Z,74.40
2023-04-05T08:18:53.888Z,73.50
2023-04-05T08:21:20.735Z,71.40
2023-04-05T08:23:47.553Z,68.80
2023-04-05T08:26:14.440Z,66.40
2023-04-05T08:28:41.132Z,65.20
2023-04-05T08:31:08.096Z,67.00
2023-04-05T08:33:34.868Z,61.50
2023-04-05T08:36:09.090Z,58.80
2023-04-05T08:38:35.918Z,57.30
2023-04-05T08:41:18.485Z,54.40
2023-04-05T08:43:57.858Z,53.20
2023-04-05T08:46:24.981Z,51.80
2023-04-05T08:48:52.461Z,50.40
2023-04-05T08:51:21.114Z,48.60
2023-04-05T08:53:48.637Z,47.00
2023-04-05T08:56:26.016Z,48.40
2023-04-05T08:59:04.439Z,47.70
2023-04-05T09:01:33.017Z,45.30
2023-04-05T09:04:11.687Z,42.80
2023-04-05T09:06:38.786Z,39.90
2023-04-05T09:09:09.024Z,40.10
2023-04-05T09:11:36.141Z,40.20
2023-04-05T09:14:04.925Z,40.00
2023-04-05T09:16:36.681Z,38.60
2023-04-05T09:19:03.369Z,38.10
2023-04-05T09:21:30.006Z,38.20
2023-04-05T09:23:56.965Z,39.20
2023-04-05T09:26:25.340Z,39.90
2023-04-05T09:28:52.730Z,40.00
2023-04-05T09:31:36.833Z,39.50
2023-04-05T09:34:04.929Z,36.90
2023-04-05T09:36:35.060Z,35.70
2023-04-05T09:39:08.662Z,34.00
2023-04-05T09:41:36.505Z,31.70
2023-04-05T09:44:03.326Z,31.00
2023-04-05T09:46:39.600Z,29.30
2023-04-05T09:49:09.208Z,29.50
2023-04-05T09:51:37.969Z,28.60
2023-04-05T09:54:07.689Z,27.80
2023-04-05T09:56:36.699Z,27.40
2023-04-05T09:59:06.820Z,27.30
2023-04-05T10:01:34.345Z,26.80
2023-04-05T10:04:01.468Z,27.10
2023-04-05T10:06:39.732Z,26.70
2023-04-05T10:09:08.079Z,26.90
2023-04-05T10:11:36.257Z,26.70
2023-04-05T10:14:05.588Z,27.50
2023-04-05T10:16:52.816Z,29.60
2023-04-05T10:19:42.276Z,30.30
2023-04-05T10:22:15.067Z,29.90
2023-04-05T10:24:50.236Z,30.70
2023-04-05T10:27:46.925Z,31.10
2023-04-05T10:30:14.679Z,30.60
2023-04-05T10:33:09.131Z,30.40
2023-04-05T10:36:06.780Z,29.40
2023-04-05T10:38:49.307Z,28.90
2023-04-05T10:41:16.438Z,28.60
2023-04-05T10:43:46.044Z,28.70
2023-04-05T10:46:23.220Z,28.60
2023-04-05T10:48:56.765Z,30.30
2023-04-05T10:51:26.786Z,30.70
2023-04-05T10:53:56.257Z,30.40
2023-04-05T10:56:23.748Z,29.70
2023-04-05T10:58:51.518Z,28.50
2023-04-05T11:01:20.642Z,27.60
2023-04-05T11:03:48.182Z,27.10
2023-04-05T11:06:30.959Z,29.60
2023-04-05T11:09:18.086Z,29.90
2023-04-05T11:11:46.773Z,30.00
2023-04-05T11:14:25.818Z,28.90
2023-04-05T11:16:56.597Z,28.50
2023-04-05T11:19:49.876Z,27.60
2023-04-05T11:22:27.401Z,28.40
2023-04-05T11:24:58.449Z,28.00
2023-04-05T11:27:33.847Z,27.00
2023-04-05T11:30:01.705Z,28.50
2023-04-05T11:32:43.585Z,30.00
2023-04-05T11:35:22.859Z,31.90
2023-04-05T11:38:02.127Z,29.90
2023-04-05T11:40:33.376Z,27.80
2023-04-05T11:43:10.419Z,27.60
2023-04-05T11:45:43.973Z,28.30
2023-04-05T11:48:13.113Z,28.80
2023-04-05T11:50:45.374Z,28.80
2023-04-05T11:53:16.231Z,29.20
2023-04-05T11:55:47.594Z,28.70
2023-04-05T11:58:23.208Z,29.20
2023-04-05T12:01:04.005Z,29.10
2023-04-05T12:03:31.458Z,28.90
2023-04-05T12:05:59.764Z,29.00
2023-04-05T12:08:42.831Z,28.40
2023-04-05T12:11:12.353Z,27.30
2023-04-05T12:13:39.696Z,27.90
2023-04-05T12:16:08.225Z,28.20
2023-04-05T12:18:36.815Z,28.60
2023-04-05T12:21:09.218Z,31.60
2023-04-05T12:23:37.228Z,34.20
2023-04-05T12:26:06.389Z,35.50
2023-04-05T12:28:56.019Z,37.40
2023-04-05T12:31:41.990Z,36.90
2023-04-05T12:34:09.995Z,36.00
2023-04-05T12:36:38.712Z,34.50
2023-04-05T12:39:10.072Z,34.80
2023-04-05T12:41:37.510Z,33.20
2023-04-05T12:44:17.083Z,32.90
2023-04-05T12:46:44.777Z,33.50
2023-04-05T12:49:13.067Z,32.60
2023-04-05T12:51:43.971Z,33.60
2023-04-05T12:54:24.010Z,36.20
2023-04-05T12:56:52.840Z,37.60
2023-04-05T12:59:19.685Z,35.20
2023-04-05T13:01:46.641Z,35.00
2023-04-05T13:04:16.713Z,33.60
2023-04-05T13:06:47.048Z,34.20
2023-04-05T13:09:13.944Z,36.60
2023-04-05T13:11:40.712Z,37.70
2023-04-05T13:14:07.628Z,38.50
2023-04-05T13:16:34.395Z,38.10
2023-04-05T13:19:01.223Z,37.60
2023-04-05T13:21:27.838Z,39.10
2023-04-05T13:23:54.492Z,38.80
2023-04-05T13:26:21.883Z,38.20
2023-04-05T13:28:48.574Z,39.10
2023-04-05T13:31:15.978Z,38.20
2023-04-05T13:33:43.445Z,38.10
2023-04-05T13:36:12.286Z,38.80
2023-04-05T13:38:39.257Z,38.00
2023-04-05T13:41:06.070Z,37.70
2023-04-05T13:43:32.710Z,39.10
2023-04-05T13:45:59.377Z,40.10
2023-04-05T13:48:26.135Z,40.30
2023-04-05T13:50:52.803Z,39.50
2023-04-05T13:53:19.445Z,39.60
2023-04-05T13:55:46.097Z,38.30
2023-04-05T13:58:14.168Z,37.50
2023-04-05T14:00:41.461Z,37.60
2023-04-05T14:03:08.447Z,37.90
2023-04-05T14:05:35.438Z,37.60
2023-04-05T14:08:02.145Z,37.90
2023-04-05T14:10:28.789Z,38.00
2023-04-05T14:12:55.502Z,37.20
2023-04-05T14:15:22.200Z,35.80
2023-04-05T14:17:48.904Z,36.50
2023-04-05T14:20:15.785Z,38.30
2023-04-05T14:22:42.422Z,37.50
2023-04-05T14:25:09.585Z,36.40
2023-04-05T14:27:41.277Z,35.90
2023-04-05T14:30:09.236Z,36.20
2023-04-05T14:32:35.933Z,37.00
2023-04-05T14:35:02.573Z,35.50
2023-04-05T14:37:29.252Z,35.30
2023-04-05T14:39:55.920Z,35.10
2023-04-05T14:42:23.805Z,35.20
2023-04-05T14:44:52.571Z,36.30
2023-04-05T14:47:19.423Z,37.10
2023-04-05T14:49:46.187Z,38.80
2023-04-05T14:52:13.093Z,40.60
2023-04-05T14:54:39.792Z,40.20
2023-04-05T14:57:06.470Z,40.40
2023-04-05T14:59:33.227Z,39.70
2023-04-05T15:01:59.964Z,39.00
2023-04-05T15:04:27.897Z,38.40
2023-04-05T15:06:54.677Z,38.50
2023-04-05T15:09:21.667Z,38.20
2023-04-05T15:11:48.454Z,37.80
2023-04-05T15:14:24.914Z,37.90
2023-04-05T15:16:57.864Z,38.30
2023-04-05T15:19:24.844Z,38.90
2023-04-05T15:21:51.582Z,39.00
2023-04-05T15:24:18.255Z,40.50
2023-04-05T15:26:44.974Z,40.00
2023-04-05T15:29:11.671Z,40.10
2023-04-05T15:31:39.378Z,41.90
2023-04-05T15:34:08.248Z,42.00
2023-04-05T15:36:36.025Z,41.70
2023-04-05T15:39:04.966Z,41.70
2023-04-05T15:41:34.472Z,42.10
2023-04-05T15:44:01.594Z,41.40
2023-04-05T15:46:29.149Z,41.70
2023-04-05T15:48:56.223Z,41.70
2023-04-05T15:51:23.129Z,41.00
2023-04-05T15:53:50.112Z,39.60
2023-04-05T15:56:16.875Z,38.80
2023-04-05T15:58:43.827Z,39.10
2023-04-05T16:01:10.757Z,40.40
2023-04-05T16:03:37.772Z,41.00
2023-04-05T16:06:04.644Z,41.20
2023-04-05T16:08:31.432Z,41.70
2023-04-05T16:10:58.175Z,42.60
2023-04-05T16:13:24.958Z,43.30
2023-04-05T16:15:51.865Z,43.70
2023-04-05T16:18:21.210Z,43.30
2023-04-05T16:20:48.224Z,42.50
2023-04-05T16:23:15.546Z,43.10
2023-04-05T16:25:42.510Z,43.10
2023-04-05T16:28:09.449Z,42.90
2023-04-05T16:30:36.892Z,42.20
2023-04-05T16:33:03.751Z,42.80
2023-04-05T16:35:31.329Z,42.70
2023-04-05T16:37:58.491Z,42.40
2023-04-05T16:40:25.281Z,43.20
2023-04-05T16:42:51.948Z,43.20
2023-04-05T16:45:18.752Z,43.60
2023-04-05T16:47:45.555Z,43.90
2023-04-05T16:50:12.318Z,43.90
2023-04-05T16:52:39.109Z,44.30
2023-04-05T16:55:06.418Z,44.50
2023-04-05T16:57:33.272Z,44.50
2023-04-05T17:00:00.248Z,44.40
2023-04-05T17:02:27.230Z,44.50
2023-04-05T17:04:54.146Z,44.80
2023-04-05T17:07:21.096Z,45.10
2023-04-05T17:09:47.938Z,45.20
2023-04-05T17:12:14.774Z,45.40
2023-04-05T17:14:41.425Z,46.20
2023-04-05T17:17:08.150Z,46.70
2023-04-05T17:19:34.817Z,47.70
2023-04-05T17:22:01.783Z,48.00
2023-04-05T17:24:34.542Z,48.70
2023-04-05T17:27:01.526Z,48.70
2023-04-05T17:29:28.348Z,49.10
2023-04-05T17:31:55.230Z,50.40
2023-04-05T17:34:21.878Z,51.20
2023-04-05T17:36:48.654Z,51.80
2023-04-05T17:39:18.308Z,51.40
2023-04-05T17:41:46.415Z,51.50
2023-04-05T17:44:13.300Z,54.10
2023-04-05T17:46:44.604Z,54.90
2023-04-05T17:49:15.303Z,55.70
2023-04-05T17:51:42.140Z,53.30
2023-04-05T17:54:08.838Z,52.80
2023-04-05T17:56:36.016Z,52.40
2023-04-05T17:59:04.132Z,52.20
2023-04-05T18:01:31.363Z,53.90
2023-04-05T18:03:59.315Z,54.30
2023-04-05T18:06:26.309Z,55.00
2023-04-05T18:08:53.240Z,54.70
2023-04-05T18:11:20.132Z,54.60
2023-04-05T18:13:48.087Z,54.90
2023-04-05T18:16:14.861Z,54.00
2023-04-05T18:18:41.828Z,54.60
2023-04-05T18:21:08.520Z,55.40
2023-04-05T18:23:35.235Z,55.00
2023-04-05T18:26:07.349Z,55.40
2023-04-05T18:28:34.077Z,55.30
2023-04-05T18:31:00.775Z,56.50
2023-04-05T18:33:27.466Z,56.50
2023-04-05T18:35:54.222Z,57.70
2023-04-05T18:38:21.771Z,56.70
2023-04-05T18:40:48.679Z,57.30
2023-04-05T18:43:15.453Z,58.20
2023-04-05T18:45:42.305Z,58.80
2023-04-05T18:48:09.015Z,58.50
2023-04-05T18:50:36.294Z,59.70
2023-04-05T18:53:03.172Z,60.90
2023-04-05T18:55:29.839Z,62.40
2023-04-05T18:57:57.092Z,62.80
2023-04-05T19:00:24.033Z,63.30
2023-04-05T19:02:51.261Z,62.90
2023-04-05T19:05:18.208Z,62.30
2023-04-05T19:07:44.973Z,62.60
2023-04-05T19:10:11.907Z,64.00
2023-04-05T19:12:38.689Z,64.10
2023-04-05T19:15:06.175Z,65.50
2023-04-05T19:17:32.882Z,65.30
2023-04-05T19:19:59.605Z,65.30
2023-04-05T19:22:26.252Z,65.30
2023-04-05T19:24:52.920Z,66.70
2023-04-05T19:27:19.591Z,66.50
2023-04-05T19:29:46.424Z,66.60
2023-04-05T19:32:13.766Z,66.10
2023-04-05T19:34:40.496Z,67.10
2023-04-05T19:37:07.210Z,68.10
2023-04-05T19:39:36.549Z,68.40
2023-04-05T19:42:04.497Z,69.00
2023-04-05T19:44:58.346Z,70.80
2023-04-05T19:47:25.936Z,70.40
2023-04-05T19:49:55.910Z,69.70
2023-04-05T19:52:47.201Z,70.30
2023-04-05T19:55:37.844Z,69.60
2023-04-05T19:58:09.628Z,70.10
2023-04-05T20:00:44.541Z,70.00
2023-04-05T20:03:33.833Z,70.00
2023-04-05T20:06:05.080Z,70.40
2023-04-05T20:08:35.022Z,74.00
2023-04-05T20:11:09.566Z,75.40
2023-04-05T20:13:43.891Z,75.40
2023-04-05T20:16:12.400Z,73.10
2023-04-05T20:18:39.497Z,72.10
2023-04-05T20:21:06.955Z,72.70
2023-04-05T20:23:35.820Z,71.70
2023-04-05T20:26:04.924Z,71.20
2023-04-05T20:28:40.280Z,71.70
2023-04-05T20:31:25.484Z,72.50
2023-04-05T20:34:16.751Z,72.50
2023-04-05T20:36:43.412Z,72.90
2023-04-05T20:39:10.320Z,74.10
2023-04-05T20:41:37.134Z,74.60
2023-04-05T20:44:03.830Z,75.00
2023-04-05T20:46:30.617Z,74.80
2023-04-05T20:48:57.977Z,75.20
2023-04-05T20:51:24.873Z,76.70
2023-04-05T20:53:51.755Z,77.20
2023-04-05T20:56:19.103Z,77.60
2023-04-05T20:58:45.770Z,78.30
2023-04-05T21:01:12.470Z,78.90
2023-04-05T21:03:41.160Z,79.20
2023-04-05T21:06:09.448Z,80.00
2023-04-05T21:08:37.547Z,80.60
2023-04-05T21:11:04.879Z,80.10
2023-04-05T21:13:32.385Z,80.40
2023-04-05T21:15:59.392Z,81.10
2023-04-05T21:18:26.201Z,82.60
2023-04-05T21:20:53.745Z,82.30
2023-04-05T21:23:22.616Z,83.00
2023-04-05T21:25:49.820Z,83.30
2023-04-05T21:28:16.572Z,83.70
2023-04-05T21:30:43.711Z,84.30
2023-04-05T21:33:11.002Z,84.70
2023-04-05T21:35:38.039Z,84.90
2023-04-05T21:38:05.031Z,85.30
2023-04-05T21:40:31.949Z,85.10
2023-04-05T21:42:59.100Z,85.00
2023-04-05T21:45:26.170Z,85.50
2023-04-05T21:47:53.096Z,87.40
2023-04-05T21:50:20.455Z,87.90
2023-04-05T21:52:47.240Z,88.20
2023-04-05T21:55:14.114Z,88.30
2023-04-05T21:57:40.809Z,88.30
2023-04-05T22:00:11.682Z,88.80
2023-04-05T22:02:39.329Z,89.10
2023-04-05T22:05:07.799Z,89.50
2023-04-05T22:07:35.322Z,89.60
2023-04-05T22:10:02.685Z,90.00
2023-04-05T22:12:29.585Z,90.00
2023-04-05T22:14:56.520Z,90.40
2023-04-05T22:17:23.292Z,90.00
2023-04-05T22:19:49.963Z,90.00
2023-04-05T22:22:17.095Z,90.00
2023-04-05T22:24:44.259Z,90.30
2023-04-05T22:27:12.052Z,89.90
2023-04-05T22:29:39.155Z,89.60
2023-04-05T22:32:06.454Z,89.80
2023-04-05T22:34:33.280Z,90.20
2023-04-05T22:37:00.483Z,90.30
2023-04-05T22:39:27.801Z,90.20
2023-04-05T22:41:54.787Z,90.40
2023-04-05T22:44:22.022Z,90.10
2023-04-05T22:46:48.774Z,90.20
2023-04-05T22:49:15.457Z,90.10
2023-04-05T22:51:42.181Z,90.20
2023-04-05T22:54:08.870Z,90.10
2023-04-05T22:56:35.909Z,90.20
2023-04-05T22:59:02.619Z,90.10
